windsock image

Welcome to Bigfield Strip.

anemometer image
     

 Help for dials.  
 
Local Met:

Wind:   
10 Min average:  
336 ° / 0.2 kts (0.0)
336° / 0.0

Temperature:  
12.7°C C
Dew Point:  
7.9°C C
QNH:  
Trend:  
1016.4 mb mb
+0.5mb/hr
BigField Strip. This image updates approximately every minute, it can have a two minute delay.  
 

Humidity:  
73 %
Sunrise:   05:00z
Sunset:   19:10z
Updated:  
  UTC
 
   More met info, trends, radar, history etc. available here   

LUTON Metar   EGGW 231850Z 29008KT CAVOK 13/06 Q1016
 
  TAF   2014/08/23 18:15 TAF EGGW 231701Z 2318/2418 28010KT 9999 SCT035 PROB30 TEMPO 2318/2321 7000 SHRA BECMG 2409/2412 21005KT
 
BENSON Metar   EGUB 231850Z AUTO 23003KT 9999 // FEW001/// 13/10 Q1017
 
  TAF   2014/08/22 15:03 TAF EGUB 221337Z 2215/2218 26008KT 9999 SCT040
 
Big Field view 1 icon   Big Field view 2 icon   Big Field view 3 icon   Chart AL3a in PDF icon   Chart AL3a in Word icon

WARNING:
This information is provided by the Airstrip unofficial weather station, DO NOT depend on the data provided here for any purpose.
This page is updated for latest Metars & TAF's every 5 minutes. Refresh the browser to check for the lastest.
Page designed for a minimum browser size of 1024x768.
© Copyright 2014 BigField Strip. This page auto generated 19:11 UTC - 23/08/2014   Contact Us
Valid HTML 4.01 Transitional     Windows uptime: 5 Days 16 Hours 39 Minutes 23 Seconds    WD started: 02:37 18/08/14    Free memory: 1494MB     Valid CSS!